Istanbul Sabiha Gökçen International Airport

LTFJ · Istanbul, Türkei

METAR-Geschichte LTFJ · Istanbul Sabiha Gökçen International Airport

Unten siehst du die METARs der letzten paar Tage. Wähle ein Jahr, um ältere METARs ab dem Jahr 2007 zu durchsuchen.

20. Juli 2024

Uhrzeit Code Wetter Temp. Sichtweite Wolkendecke Wind METAR/SPECI
04:20
M
25 °C 10 km+ 2.000 ft 020° 020° 7 kt METAR LTFJ 200120Z 02007KT 9999 SCT009 BKN020 25/24 Q1009 NOSIG RMK RWY24R 02004KT RWY06R 01006KT RWY24L 04006KT
04:20
M
25 °C 10 km+ 2.000 ft 020° 020° 7 kt METAR LTFJ 200120Z 02007KT 9999 SCT009 BKN020 25/24 Q1009 NOSIG
03:50
M
25 °C 10 km+ 2.000 ft 020° 020° 6 kt METAR LTFJ 200050Z 02006KT 9999 SCT009 BKN020 25/24 Q1009 NOSIG RMK RWY24R 02004KT RWY06R 01006KT RWY24L 01004KT
03:20
M
25 °C 10 km+ 2.000 ft 030° 030° 6 kt METAR LTFJ 200020Z 03006KT 9999 SCT009 BKN020 25/24 Q1009 NOSIG
02:50
M
26 °C 10 km+ 2.000 ft 040° 040° 5 kt METAR LTFJ 192350Z 04005KT 9999 SCT009 BKN020 26/24 Q1010 NOSIG RMK RWY24R 05003KT RWY06R 03005KT RWY24L 02003KT
02:20
M
26 °C 10 km+ 2.000 ft 050° 050° 5 kt METAR LTFJ 192320Z 05005KT 9999 SCT009 BKN020 26/24 Q1010 NOSIG
01:50
M
26 °C 10 km+ 2.000 ft 050° 050° 5 kt METAR LTFJ 192250Z 05005KT 010V090 9999 SCT009 BKN020 26/24 Q1010 NOSIG RMK RWY24R 04004KT 360V070 RWY06R 04005KT RWY24L 01003KT
01:20
V
26 °C 10 km+ - 070° 070° 6 kt METAR LTFJ 192220Z 07006KT 9999 SCT009 26/24 Q1010 NOSIG
00:50
V
26 °C 10 km+ - 070° 070° 5 kt METAR LTFJ 192150Z 07005KT 030V090 9999 SCT009 26/24 Q1010 NOSIG RMK RWY24R 05004KT 010V120 RWY06R 05005KT RWY24L 04003KT
00:20
V
26 °C 10 km+ - 060° 060° 6 kt METAR LTFJ 192120Z 06006KT 9999 SCT009 26/24 Q1011 NOSIG

19. Juli 2024

Uhrzeit Code Wetter Temp. Sichtweite Wolkendecke Wind METAR/SPECI
23:50
V
26 °C 10 km+ - 040° 040° 8 kt METAR LTFJ 192050Z 04008KT 360V060 9999 SCT009 26/24 Q1011 NOSIG RMK RWY24R 04005KT 310V090 RWY06R 03007KT RWY24L 03006KT
23:20
V
26 °C 10 km+ - 080° 080° 9 kt METAR LTFJ 192020Z 08009KT 9999 SCT009 26/24 Q1011 NOSIG
22:50
V
26 °C 10 km+ - 050° 050° 9 kt METAR LTFJ 191950Z 05009KT 9999 SCT009 26/24 Q1011 NOSIG RMK RWY24R 06005KT RWY06R 05008KT RWY24L 05007KT 020V080
22:20
V
27 °C 10 km+ - 050° 050° 10 kt METAR LTFJ 191920Z 05010KT 9999 SCT011 27/24 Q1011 NOSIG
21:50
V
27 °C 10 km+ - 040° 040° 8 kt METAR LTFJ 191850Z 04008KT 010V070 9999 SCT015 27/24 Q1011 NOSIG RMK RWY24R 05011KT RWY06R 04012KT RWY24L 04010KT
21:20
V
27 °C 10 km+ - 050° 050° 11 kt METAR LTFJ 191820Z 05011KT 9999 SCT015 27/24 Q1011 NOSIG
20:50
V
27 °C 10 km+ - 030° 030° 15 kt METAR LTFJ 191750Z 03015KT 9999 FEW015 27/24 Q1011 NOSIG RMK RWY24R 04012KT RWY06R 03014KT RWY24L 03014KT
20:20
V
28 °C 10 km+ - 030° 030° 16 kt METAR LTFJ 191720Z 03016KT 9999 FEW035 28/23 Q1010 NOSIG
19:50
V
28 °C 10 km+ - 030° 030° 19 kt METAR LTFJ 191650Z 03019KT 9999 FEW035 28/23 Q1010 NOSIG RMK RWY24R 04016KT RWY06R 02018KT RWY24L 03017KT
19:20
V
29 °C 10 km+ - 030° 030° 20 kt METAR LTFJ 191620Z 03020KT 9999 FEW035 29/23 Q1010 NOSIG
18:50
V
29 °C 10 km+ - 020° 020° 20 kt METAR LTFJ 191550Z 02020KT 9999 FEW035 29/23 Q1010 NOSIG RMK RWY24R 04018KT RWY06R 02021KT RWY24L 02019KT
18:20
V
30 °C 10 km+ - 030° 030° 18 kt METAR LTFJ 191520Z 03018KT 9999 FEW035 30/23 Q1010 NOSIG
17:50
V
30 °C 10 km+ - 030° 030° 18 kt METAR LTFJ 191450Z 03018KT 9999 FEW026 30/23 Q1010 NOSIG RMK RWY24R 04017KT RWY06R 02020KT RWY24L 02019KT
17:20
V
31 °C 10 km+ - 030° 030° 20 kt METAR LTFJ 191420Z 03020KT 9999 FEW026 31/23 Q1010 NOSIG
16:50
V
31 °C 10 km+ - 020° 020° 18 kt METAR LTFJ 191350Z 02018KT 9999 FEW040 31/23 Q1010 NOSIG RMK RWY24R 06016G26KT RWY06R 02018KT RWY24L 02017KT
16:20
V
32 °C 10 km+ - 020° 020° 20 kt METAR LTFJ 191320Z 02020KT 9999 FEW040 32/23 Q1011 NOSIG
15:50
V
32 °C 10 km+ - 020° 020° 21 kt METAR LTFJ 191250Z 02021KT 9999 FEW040 32/23 Q1011 NOSIG RMK RWY24R 03019KT RWY06R 02021KT RWY24L 03018KT
15:20
V
32 °C 10 km+ - 020° 020° 20 kt METAR LTFJ 191220Z 02020KT 9999 FEW040 32/23 Q1011 NOSIG
14:50
V
33 °C 10 km+ - 010° 010° 19 kt METAR LTFJ 191150Z 01019KT 9999 FEW040 33/23 Q1011 NOSIG RMK RWY24R 03016KT 360V070 RWY06R 01018KT RWY24L 01018KT
14:20
V
33 °C 10 km+ - 030° 030° 16 kt METAR LTFJ 191120Z 03016KT 290V090 9999 FEW040 33/23 Q1011 NOSIG
13:50
V
33 °C 10 km+ - 020° 020° 15 kt METAR LTFJ 191050Z 02015KT 360V080 9999 FEW040 33/22 Q1012 NOSIG RMK RWY24R 03014KT 360V060 RWY06R 02016KT 330V040 RWY24L 02016KT
13:20
V
33 °C 10 km+ - 020° 020° 14 kt METAR LTFJ 191020Z 02014KT 9999 FEW036 33/23 Q1012 NOSIG
12:50
V
33 °C 10 km+ - 360° 360° 13 kt METAR LTFJ 190950Z 36013KT 340V090 9999 FEW036 33/23 Q1012 NOSIG RMK RWY24R 04012KT 010V070 RWY06R 36013KT 330V030 RWY24L 01014KT 340V040
12:20
V
33 °C 10 km+ - 020° 020° 12 kt METAR LTFJ 190920Z 02012KT 280V080 9999 FEW040 33/22 Q1012 NOSIG
11:50
V
33 °C 10 km+ - 030° 030° 12 kt METAR LTFJ 190850Z 03012KT 290V080 CAVOK 33/20 Q1012 NOSIG RMK RWY24R 02011KT 340V060 RWY06R 02012KT 350V050 RWY24L 02013KT
11:20
V
33 °C 10 km+ - 020° 020° 10 kt METAR LTFJ 190820Z 02010KT CAVOK 33/21 Q1012 NOSIG
10:50
V
32 °C 10 km+ - 010° 010° 10 kt METAR LTFJ 190750Z 01010KT CAVOK 32/22 Q1012 NOSIG RMK RWY24R 03009KT 350V070 RWY06R 01008KT 330V040 RWY24L 01010KT 340V040
10:20
V
31 °C 10 km+ - 020° 020° 10 kt METAR LTFJ 190720Z 02010KT 9999 FEW015 31/22 Q1012 NOSIG
09:50
V
30 °C 10 km+ - 020° 020° 8 kt METAR LTFJ 190650Z 02008KT 9999 FEW015 30/22 Q1012 NOSIG RMK RWY24R 04007KT 360V080 RWY06R 02009KT 340V040 RWY24L 36009KT 340V040
09:20
V
29 °C 10 km+ - 060° 060° 8 kt METAR LTFJ 190620Z 06008KT 340V080 9999 FEW015 29/23 Q1012 NOSIG
08:50
V
28 °C 10 km+ - 050° 050° 7 kt METAR LTFJ 190550Z 05007KT 310V080 9999 FEW012 28/23 Q1012 NOSIG RMK RWY24R 03006KT 350V090 RWY06R 03008KT RWY24L 01006KT 330V040
08:20
V
27 °C 10 km+ - 050° 050° 7 kt METAR LTFJ 190520Z 05007KT 9999 SCT012 27/24 Q1012 NOSIG
07:50
M
27 °C 10 km+ 1.200 ft 060° 060° 8 kt METAR LTFJ 190450Z 06008KT 9999 BKN012 27/23 Q1012 NOSIG RMK RWY24R 06006KT 010V080 RWY06R 03010KT RWY24L 03008KT
07:20
M
26 °C 10 km+ 1.200 ft 060° 060° 6 kt METAR LTFJ 190420Z 06006KT 270V080 9999 BKN012 26/23 Q1012 NOSIG
06:50
M
25 °C 10 km+ 1.200 ft 060° 060° 5 kt METAR LTFJ 190350Z 06005KT 340V090 9999 BKN012 25/23 Q1012 NOSIG
06:20
M
25 °C 10 km+ 1.200 ft 070° 070° 4 kt METAR LTFJ 190320Z 07004KT 9999 BKN012 25/23 Q1012 NOSIG
05:50
I
24 °C 10 km+ 900 ft 070° 070° 3 kt METAR LTFJ 190250Z 07003KT 9999 BKN009 24/23 Q1012 NOSIG RMK RWY24R VRB01KT RWY06R 07003KT 030V110 RWY24L 02001KT
05:20
V
24 °C 10 km+ - 060° 060° 6 kt METAR LTFJ 190220Z 06006KT 9999 SCT012 24/23 Q1012 NOSIG
04:50
V
25 °C 10 km+ - 050° 050° 8 kt METAR LTFJ 190150Z 05008KT 9999 SCT012 25/24 Q1012 NOSIG RMK RWY24R 06005KT RWY06R 07005KT RWY24L 05006KT 020V090
04:20
V
25 °C 10 km+ - 050° 050° 7 kt METAR LTFJ 190120Z 05007KT 9999 SCT012 25/23 Q1012 NOSIG
03:50
V
25 °C 10 km+ - 050° 050° 8 kt METAR LTFJ 190050Z 05008KT 9999 SCT012 25/23 Q1012 NOSIG RMK RWY24R 06005KT RWY06R 05006KT RWY24L 04006KT
03:20
V
25 °C 10 km+ - 060° 060° 5 kt METAR LTFJ 190020Z 06005KT 9999 SCT012 25/23 Q1012 NOSIG
02:50
V
25 °C 10 km+ - 060° 060° 4 kt METAR LTFJ 182350Z 06004KT 9999 SCT012 25/23 Q1012 NOSIG RMK RWY24R 06004KT RWY06R 07004KT RWY24L 08003KT 020V100
02:20
V
25 °C 10 km+ - 060° 060° 6 kt METAR LTFJ 182320Z 06006KT 9999 FEW012 25/23 Q1012 NOSIG
01:50
V
26 °C 10 km+ - 060° 060° 8 kt METAR LTFJ 182250Z 06008KT 9999 FEW007 26/24 Q1012 NOSIG RMK RWY24R 04005KT RWY06R 07004KT 050V110 RWY24L 05004KT 020V080
01:20
V
26 °C 10 km+ - 060° 060° 9 kt METAR LTFJ 182220Z 06009KT CAVOK 26/24 Q1012 NOSIG
00:50
V
26 °C 10 km+ - 060° 060° 11 kt METAR LTFJ 182150Z 06011KT CAVOK 26/24 Q1012 NOSIG RMK RWY24R 04009KT RWY06R 02013KT RWY24L 02010KT
00:20
V
26 °C 10 km+ - 060° 060° 11 kt METAR LTFJ 182120Z 06011KT CAVOK 26/24 Q1012 NOSIG

18. Juli 2024

Uhrzeit Code Wetter Temp. Sichtweite Wolkendecke Wind METAR/SPECI
23:50
V
26 °C 10 km+ - 050° 050° 10 kt METAR LTFJ 182050Z 05010KT CAVOK 26/24 Q1012 NOSIG RMK RWY24R 05008KT RWY06R 03012KT RWY24L 03008KT
23:20
V
26 °C 10 km+ - 050° 050° 10 kt METAR LTFJ 182020Z 05010KT CAVOK 26/24 Q1012 NOSIG
22:50
V
26 °C 10 km+ - 050° 050° 11 kt METAR LTFJ 181950Z 05011KT CAVOK 26/24 Q1012 NOSIG RMK RWY24R 05008KT RWY06R 04011KT RWY24L 03007KT
22:20
V
27 °C 10 km+ - 060° 060° 12 kt METAR LTFJ 181920Z 06012KT CAVOK 27/24 Q1012 NOSIG
21:50
V
27 °C 10 km+ - 050° 050° 13 kt METAR LTFJ 181850Z 05013KT CAVOK 27/24 Q1012 NOSIG RMK RWY24R 04010KT RWY06R 02014KT RWY24L 02011KT
21:20
V
28 °C 10 km+ - 060° 060° 14 kt METAR LTFJ 181820Z 06014KT CAVOK 28/24 Q1012 NOSIG
20:50
V
28 °C 10 km+ - 060° 060° 14 kt METAR LTFJ 181750Z 06014KT CAVOK 28/24 Q1011 NOSIG RMK RWY24R 04010KT RWY06R 02016KT RWY24L 03013KT
20:20
V
29 °C 10 km+ - 060° 060° 15 kt METAR LTFJ 181720Z 06015KT CAVOK 29/23 Q1011 NOSIG
19:50
V
30 °C 10 km+ - 050° 050° 17 kt METAR LTFJ 181650Z 05017KT CAVOK 30/22 Q1011 NOSIG RMK RWY24R 04014KT RWY06R 02019KT RWY24L 02015KT
19:20
V
31 °C 10 km+ - 050° 050° 17 kt METAR LTFJ 181620Z 05017KT CAVOK 31/19 Q1011 NOSIG
18:50
V
32 °C 10 km+ - 060° 060° 16 kt METAR LTFJ 181550Z 06016KT CAVOK 32/16 Q1011 NOSIG RMK RWY24R 03014KT RWY06R 01016KT RWY24L 01014KT
18:20
V
33 °C 10 km+ - 050° 050° 16 kt METAR LTFJ 181520Z 05016KT CAVOK 33/15 Q1011 NOSIG
17:50
V
34 °C 10 km+ - 050° 050° 17 kt METAR LTFJ 181450Z 05017KT CAVOK 34/15 Q1011 NOSIG RMK RWY24R 04013KT RWY06R 02016KT RWY24L 02013KT 350V050
17:20
V
34 °C 10 km+ - 060° 060° 16 kt METAR LTFJ 181420Z 06016KT 010V080 CAVOK 34/17 Q1011 NOSIG
16:50
V
34 °C 10 km+ - 050° 050° 18 kt METAR LTFJ 181350Z 05018KT CAVOK 34/18 Q1011 NOSIG RMK RWY24R 02015KT RWY06R 01017KT RWY24L 02018KT
16:20
V
34 °C 10 km+ - 050° 050° 17 kt METAR LTFJ 181320Z 05017KT CAVOK 34/19 Q1012 NOSIG
15:50
V
34 °C 10 km+ - 030° 030° 16 kt METAR LTFJ 181250Z 03016KT CAVOK 34/20 Q1012 NOSIG RMK RWY24R 03016KT RWY06R 02017KT RWY24L 01016KT 340V050
15:20
V
34 °C 10 km+ - 060° 060° 20 kt METAR LTFJ 181220Z 06020KT CAVOK 34/20 Q1012 NOSIG
14:50
V
36 °C 10 km+ - 060° 060° 16 kt METAR LTFJ 181150Z 06016KT CAVOK 36/19 Q1012 NOSIG RMK RWY24R 04014KT 360V070 RWY06R 03016KT 360V060 RWY24L 05016KT
14:20
V
35 °C 10 km+ - 060° 060° 17 kt METAR LTFJ 181120Z 06017KT CAVOK 35/17 Q1012 NOSIG
13:50
V
36 °C 10 km+ - 060° 060° 17 kt METAR LTFJ 181050Z 06017KT CAVOK 36/16 Q1012 NOSIG RMK RWY24R 06015KT 030V100 RWY06R 04018KT 010V070 RWY24L 04017KT 010V080
13:20
V
35 °C 10 km+ - 060° 060° 13 kt METAR LTFJ 181020Z 06013KT CAVOK 35/17 Q1012 NOSIG
12:50
V
35 °C 10 km+ - 050° 050° 14 kt METAR LTFJ 180950Z 05014KT CAVOK 35/18 Q1012 NOSIG RMK RWY24R 06012KT 030V090 RWY06R 04012KT RWY24L 04012KT 360V090
12:20
V
35 °C 10 km+ - 060° 060° 11 kt METAR LTFJ 180920Z 06011KT CAVOK 35/20 Q1012 NOSIG
11:50
V
34 °C 10 km+ - 060° 060° 10 kt METAR LTFJ 180850Z 06010KT 020V080 CAVOK 34/21 Q1012 NOSIG RMK RWY24R 06010KT 010V100 RWY06R 03010KT 350V070 RWY24L 05010G20KT 360V100
11:20
V
32 °C 10 km+ - 060° 060° 8 kt METAR LTFJ 180820Z 06008KT 340V080 CAVOK 32/22 Q1012 NOSIG
10:50
V
32 °C 10 km+ - 050° 050° 9 kt METAR LTFJ 180750Z 05009KT 270V080 CAVOK 32/22 Q1012 NOSIG RMK RWY24R 06007KT 020V100 RWY06R 04008KT 300V070 RWY24L 01010KT 340V050
10:20
V
32 °C 10 km+ - 050° 050° 7 kt METAR LTFJ 180720Z 05007KT 300V080 CAVOK 32/21 Q1012 NOSIG
09:50
V
30 °C 10 km+ - 050° 050° 6 kt METAR LTFJ 180650Z 05006KT 290V080 9999 SCT022 30/23 Q1012 NOSIG RMK RWY24R 03008KT 360V080 RWY06R 03007KT 340V070 RWY24L 03007KT 350V070
09:20
V
30 °C 10 km+ - Var Var 4 kt METAR LTFJ 180620Z VRB04KT 9999 SCT022 30/23 Q1012 NOSIG
08:50
V
29 °C 10 km+ - Var Var 3 kt METAR LTFJ 180550Z VRB03KT 9999 SCT013 29/23 Q1012 NOSIG
08:20
V
28 °C 10 km+ - Var Var 2 kt METAR LTFJ 180520Z VRB02KT 9999 SCT013 28/24 Q1012 NOSIG
07:50
V
26 °C 10 km+ - 220° 220° 3 kt METAR LTFJ 180450Z 22003KT 090V260 9999 SCT013 26/24 Q1012 NOSIG RMK RWY24R 07003KT 040V120 RWY06R VRB02KT RWY24L 03004KT
07:20
M
26 °C 10 km+ 1.300 ft 130° 130° 3 kt METAR LTFJ 180420Z 13003KT 100V260 9999 BKN013 26/24 Q1012 NOSIG
06:50
M
25 °C 10 km+ 1.300 ft Var Var 1 kt METAR LTFJ 180350Z VRB01KT 9999 BKN013 25/24 Q1012 NOSIG RMK RWY24R VRB02KT RWY06R VRB02KT RWY24L 01003KT 330V050
06:20
M
25 °C 6 km 1.100 ft 080° 080° 4 kt METAR LTFJ 180320Z 08004KT 6000 BKN011 25/24 Q1012 NOSIG
05:50
I
25 °C 4,2 km 600 ft 080° 080° 4 kt METAR LTFJ 180250Z 08004KT 4200 BR BKN006 25/24 Q1012 BECMG TL0350 6000 RMK RWY24R 08002KT RWY06R 06004KT RWY24L VRB01KT
05:41
I
25 °C 2,5 km 600 ft 070° 070° 4 kt METAR LTFJ 180241Z 07004KT 2500 BR BKN006 25/24 Q1012 BECMG TL0340 6000
05:20
I
24 °C 4,3 km 800 ft 060° 060° 4 kt METAR LTFJ 180220Z 06004KT 010V070 4300 BR BKN008 24/24 Q1012 BECMG TL0320 6000 RMK RWY24R VRB02KT RWY06R 05005KT RWY24L 01004KT
04:50
M
24 °C 6 km - 070° 070° 6 kt METAR LTFJ 180150Z 07006KT 6000 SCT001 24/23 Q1011 NOSIG RMK RWY24R 08002KT RWY06R 06005KT RWY24L 03005KT
04:20
M
25 °C 7 km - 060° 060° 6 kt METAR LTFJ 180120Z 06006KT 7000 SCT002 25/23 Q1011 NOSIG
03:50
M
25 °C 10 km+ 1.100 ft 060° 060° 6 kt METAR LTFJ 180050Z 06006KT 9999 BKN011 25/24 Q1011 NOSIG RMK RWY24R 08003KT RWY06R 06006KT RWY24L 04006KT
03:20
M
25 °C 10 km+ 1.100 ft 050° 050° 6 kt METAR LTFJ 180020Z 05006KT 9999 BKN011 25/24 Q1011 NOSIG
02:50
M
25 °C 10 km+ 1.100 ft 050° 050° 6 kt METAR LTFJ 172350Z 05006KT 9999 BKN011 25/24 Q1011 NOSIG RMK RWY24R 06003KT RWY06R 03007KT RWY24L 04005KT
02:20
M
25 °C 10 km+ 1.100 ft 060° 060° 5 kt METAR LTFJ 172320Z 06005KT 9999 BKN011 25/24 Q1012 NOSIG
01:50
V
26 °C 10 km+ - 050° 050° 6 kt METAR LTFJ 172250Z 05006KT 9999 SCT010 26/24 Q1012 NOSIG RMK RWY24R 05002KT RWY06R 03006KT RWY24L 01003KT
01:20
V
26 °C 10 km+ - 050° 050° 8 kt METAR LTFJ 172220Z 05008KT 9999 SCT010 26/24 Q1012 NOSIG
00:50
V
26 °C 10 km+ - 050° 050° 7 kt METAR LTFJ 172150Z 05007KT 9999 SCT010 26/24 Q1012 NOSIG RMK RWY24R VRB02KT RWY06R 05006KT RWY24L 00000KT
00:20
V
26 °C 10 km+ - 050° 050° 7 kt METAR LTFJ 172120Z 05007KT 9999 FEW015 26/24 Q1012 NOSIG

17. Juli 2024

Uhrzeit Code Wetter Temp. Sichtweite Wolkendecke Wind METAR/SPECI
23:50
V
26 °C 10 km+ - 050° 050° 9 kt METAR LTFJ 172050Z 05009KT 9999 FEW015 26/24 Q1012 NOSIG RMK RWY24R 06003KT 010V110 RWY06R 04008KT RWY24L 04005KT
23:20
V
26 °C 10 km+ - 050° 050° 8 kt METAR LTFJ 172020Z 05008KT 9999 FEW015 26/24 Q1012 NOSIG
22:50
V
27 °C 10 km+ - 050° 050° 8 kt METAR LTFJ 171950Z 05008KT 9999 FEW015 27/24 Q1012 NOSIG RMK RWY24R 04007KT 030V090 RWY06R 03009KT RWY24L 04007KT
22:20
V
27 °C 10 km+ - 060° 060° 9 kt METAR LTFJ 171920Z 06009KT 9999 FEW015 27/24 Q1012 NOSIG
21:50
V
27 °C 10 km+ - 060° 060° 6 kt METAR LTFJ 171850Z 06006KT 270V080 CAVOK 27/24 Q1012 NOSIG RMK RWY24R 05007KT RWY06R 03008KT RWY24L 03008KT
21:20
V
28 °C 10 km+ - 050° 050° 9 kt METAR LTFJ 171820Z 05009KT CAVOK 28/24 Q1011 NOSIG
20:50
V
28 °C 10 km+ - 050° 050° 11 kt METAR LTFJ 171750Z 05011KT CAVOK 28/23 Q1011 NOSIG RMK RWY24R 05010KT RWY06R 03012KT RWY24L 03009KT
20:20
V
29 °C 10 km+ - 060° 060° 13 kt METAR LTFJ 171720Z 06013KT CAVOK 29/22 Q1011 NOSIG
19:50
V
30 °C 10 km+ - 060° 060° 15 kt METAR LTFJ 171650Z 06015KT CAVOK 30/19 Q1011 NOSIG RMK RWY24R 04013KT RWY06R 03016KT RWY24L 03015KT
19:20
V
31 °C 10 km+ - 060° 060° 16 kt METAR LTFJ 171620Z 06016KT CAVOK 31/19 Q1010 NOSIG
18:50
V
31 °C 10 km+ - 060° 060° 15 kt METAR LTFJ 171550Z 06015KT CAVOK 31/17 Q1010 NOSIG RMK RWY24R 04014KT RWY06R 01016KT RWY24L 02016KT
18:20
V
32 °C 10 km+ - 060° 060° 16 kt METAR LTFJ 171520Z 06016KT CAVOK 32/18 Q1011 NOSIG
17:50
V
32 °C 10 km+ - 070° 070° 16 kt METAR LTFJ 171450Z 07016KT 030V090 CAVOK 32/18 Q1010 NOSIG RMK RWY24R 04015KT RWY06R 02016KT RWY24L 02014KT
17:20
V
33 °C 10 km+ - 060° 060° 16 kt METAR LTFJ 171420Z 06016KT CAVOK 33/18 Q1010 NOSIG
16:50
V
33 °C 10 km+ - 060° 060° 16 kt METAR LTFJ 171350Z 06016KT 9999 FEW030 33/18 Q1010 NOSIG RMK RWY24R 04012KT 010V080 RWY06R 02013KT 350V050 RWY24L 02012KT
16:20
V
33 °C 10 km+ - 060° 060° 14 kt METAR LTFJ 171320Z 06014KT 9999 FEW030 33/19 Q1010 NOSIG
15:50
V
34 °C 10 km+ - 060° 060° 15 kt METAR LTFJ 171250Z 06015KT 9999 FEW030 34/18 Q1010 NOSIG RMK RWY24R 04014KT 010V080 RWY06R 02014KT 350V050 RWY24L 04015KT 360V080
15:20
V
34 °C 10 km+ - 060° 060° 13 kt METAR LTFJ 171220Z 06013KT 9999 FEW030 34/18 Q1010 NOSIG
14:50
V
33 °C 10 km+ - 050° 050° 12 kt METAR LTFJ 171150Z 05012KT 010V080 9999 SCT030 33/19 Q1010 NOSIG RMK RWY24R 02014KT 360V060 RWY06R 01012KT RWY24L 03011KT 350V070
14:20
V
34 °C 10 km+ - 060° 060° 12 kt METAR LTFJ 171120Z 06012KT 9999 SCT030 34/20 Q1011 NOSIG
13:50
V
34 °C 10 km+ - 060° 060° 14 kt METAR LTFJ 171050Z 06014KT 330V080 9999 SCT030 34/20 Q1011 NOSIG RMK RWY24R 05011KT 020V090 RWY06R 03014KT RWY24L 03014KT 350V060
13:20
V
33 °C 10 km+ - 050° 050° 13 kt METAR LTFJ 171020Z 05013KT 9999 SCT030 33/21 Q1011 NOSIG
12:50
V
33 °C 10 km+ - 070° 070° 12 kt METAR LTFJ 170950Z 07012KT 9999 SCT030 33/21 Q1011 NOSIG RMK RWY24R 03011KT 350V070 RWY06R 03012KT 360V070 RWY24L 04012KT 010V090
12:20
V
32 °C 10 km+ - 050° 050° 10 kt METAR LTFJ 170920Z 05010KT 9999 SCT030 32/21 Q1011 NOSIG
11:50
V
32 °C 10 km+ - 060° 060° 9 kt METAR LTFJ 170850Z 06009KT 340V090 9999 SCT030 32/21 Q1011 NOSIG RMK RWY24R 03009KT 350V070 RWY06R 06008KT 010V120 RWY24L 01011KT
11:20
V
31 °C 10 km+ - Var Var 6 kt METAR LTFJ 170820Z VRB06KT 9999 FEW030 31/21 Q1011 BECMG 06018KT
10:50
V
31 °C 10 km+ - Var Var 7 kt METAR LTFJ 170750Z VRB07KT 9999 FEW030 31/21 Q1011 NOSIG RMK RWY24R 06007KT 020V110 RWY06R 03007KT 340V070 RWY24L 04009KT 360V090
10:20
V
31 °C 10 km+ - Var Var 4 kt METAR LTFJ 170720Z VRB04KT 9999 FEW030 31/20 Q1011 NOSIG
09:50
V
30 °C 10 km+ - Var Var 3 kt METAR LTFJ 170650Z VRB03KT CAVOK 30/22 Q1011 NOSIG RMK RWY24R VRB04KT RWY06R VRB03KT RWY24L 01005KT 300V050
09:20
V
29 °C 10 km+ - 050° 050° 5 kt METAR LTFJ 170620Z 05005KT 270V080 9999 SCT015 29/22 Q1011 NOSIG
08:50
V
28 °C 10 km+ - Var Var 3 kt METAR LTFJ 170550Z VRB03KT 9999 SCT015 28/23 Q1011 NOSIG RMK RWY24R VRB04KT RWY06R 35004KT 300V040 RWY24L 01005KT 330V080
Eine Änderung melden